createdAt,value
2018-08-31T00:00:33.601Z,4.03
2018-08-31T00:03:02.417Z,3.77
2018-08-31T00:05:46.967Z,4.33
2018-08-31T00:10:37.570Z,3.73
2018-08-31T00:13:06.473Z,3.50
2018-08-31T00:15:34.969Z,4.10
2018-08-31T00:18:03.404Z,4.03
2018-08-31T00:20:32.134Z,4.05
2018-08-31T00:23:01.005Z,3.80
2018-08-31T00:26:06.913Z,3.73
2018-08-31T00:28:47.431Z,4.10
2018-08-31T00:31:37.698Z,3.80
2018-08-31T00:36:27.651Z,4.10
2018-08-31T00:41:25.498Z,3.73
2018-08-31T00:44:05.757Z,4.33
2018-08-31T00:46:34.453Z,4.42
2018-08-31T00:49:02.901Z,4.20
2018-08-31T00:51:31.613Z,4.27
2018-08-31T00:54:00.132Z,3.73
2018-08-31T00:56:28.557Z,4.10
2018-08-31T00:58:57.073Z,4.67
2018-08-31T01:01:25.603Z,4.10
2018-08-31T01:03:54.028Z,3.63
2018-08-31T01:06:22.797Z,3.90
2018-08-31T01:08:51.402Z,3.73
2018-08-31T01:11:19.969Z,4.10
2018-08-31T01:13:48.523Z,4.13
2018-08-31T01:16:17.396Z,3.65
2018-08-31T01:18:45.865Z,4.22
2018-08-31T01:21:14.512Z,4.12
2018-08-31T01:23:43.027Z,4.47
2018-08-31T01:26:11.800Z,4.03
2018-08-31T01:28:40.453Z,4.15
2018-08-31T01:31:08.936Z,4.23
2018-08-31T01:33:38.026Z,4.27
2018-08-31T01:36:06.690Z,3.92
2018-08-31T01:38:35.575Z,4.08
2018-08-31T01:41:04.053Z,3.83
2018-08-31T01:43:32.596Z,3.83
2018-08-31T01:46:01.113Z,3.95
2018-08-31T01:48:29.577Z,4.30
2018-08-31T01:51:03.313Z,4.53
2018-08-31T01:53:32.033Z,4.55
2018-08-31T01:56:00.552Z,4.87
2018-08-31T01:58:29.006Z,4.50
2018-08-31T02:00:57.597Z,4.55
2018-08-31T02:03:26.020Z,4.83
2018-08-31T02:05:54.494Z,5.03
2018-08-31T02:08:23.812Z,5.83
2018-08-31T02:10:52.243Z,5.17
2018-08-31T02:13:20.762Z,5.40
2018-08-31T02:15:49.284Z,6.27
2018-08-31T02:18:17.932Z,6.13
2018-08-31T02:20:46.360Z,6.78
2018-08-31T02:23:15.021Z,6.63
2018-08-31T02:25:43.824Z,6.57
2018-08-31T02:28:12.293Z,7.33
2018-08-31T02:30:41.008Z,7.25
2018-08-31T02:33:09.577Z,6.83
2018-08-31T02:35:38.049Z,7.67
2018-08-31T02:38:07.237Z,8.00
2018-08-31T02:40:36.394Z,8.00
2018-08-31T02:43:04.990Z,7.60
2018-08-31T02:45:34.210Z,8.03
2018-08-31T02:48:02.641Z,8.70
2018-08-31T02:50:31.098Z,8.33
2018-08-31T02:52:59.647Z,8.37
2018-08-31T02:55:28.085Z,8.90
2018-08-31T02:57:56.560Z,8.70
2018-08-31T03:00:25.404Z,8.40
2018-08-31T03:02:53.850Z,8.27
2018-08-31T03:05:22.495Z,8.57
2018-08-31T03:07:51.031Z,9.17
2018-08-31T03:10:20.005Z,8.70
2018-08-31T03:12:48.533Z,9.50
2018-08-31T03:15:17.425Z,9.20
2018-08-31T03:17:46.838Z,9.70
2018-08-31T03:20:15.410Z,9.63
2018-08-31T03:22:43.916Z,8.70
2018-08-31T03:25:12.352Z,8.37
2018-08-31T03:27:40.822Z,8.30
2018-08-31T03:30:09.841Z,8.70
2018-08-31T03:32:38.413Z,8.30
2018-08-31T03:35:07.095Z,8.27
2018-08-31T03:37:35.901Z,8.17
2018-08-31T03:40:04.425Z,8.37
2018-08-31T03:42:33.288Z,8.40
2018-08-31T03:45:01.950Z,7.93
2018-08-31T03:47:30.470Z,8.60
2018-08-31T03:49:58.961Z,8.37
2018-08-31T03:52:27.797Z,8.53
2018-08-31T03:54:56.281Z,9.03
2018-08-31T03:57:24.859Z,9.97
2018-08-31T03:59:53.764Z,8.93
2018-08-31T04:02:22.195Z,8.95
2018-08-31T04:04:50.797Z,8.63
2018-08-31T04:07:19.510Z,9.10
2018-08-31T04:09:48.033Z,9.47
2018-08-31T04:12:16.630Z,9.03
2018-08-31T04:14:45.581Z,8.97
2018-08-31T04:17:14.021Z,8.80
2018-08-31T04:19:42.946Z,9.83
2018-08-31T04:22:11.561Z,8.50
2018-08-31T04:24:39.985Z,9.43
2018-08-31T04:27:08.465Z,8.80
2018-08-31T04:29:36.970Z,9.40
2018-08-31T04:32:05.864Z,9.93
2018-08-31T04:34:34.537Z,10.10
2018-08-31T04:37:03.474Z,9.93
2018-08-31T04:39:31.929Z,9.53
2018-08-31T04:42:00.509Z,9.50
2018-08-31T04:44:29.497Z,9.67
2018-08-31T04:46:58.005Z,9.53
2018-08-31T04:49:26.474Z,9.57
2018-08-31T04:51:54.999Z,9.53
2018-08-31T04:54:23.439Z,8.73
2018-08-31T04:56:51.953Z,8.80
2018-08-31T04:59:20.680Z,9.57
2018-08-31T05:01:49.129Z,8.60
2018-08-31T05:04:17.789Z,9.27
2018-08-31T05:06:46.324Z,9.03
2018-08-31T05:09:14.755Z,8.80
2018-08-31T05:11:43.277Z,8.83
2018-08-31T05:14:12.197Z,9.47
2018-08-31T05:16:40.640Z,9.07
2018-08-31T05:19:09.152Z,8.90
2018-08-31T05:21:38.530Z,9.83
2018-08-31T05:24:07.120Z,10.30
2018-08-31T05:26:35.572Z,9.80
2018-08-31T05:29:04.150Z,9.20
2018-08-31T05:31:32.667Z,9.40
2018-08-31T05:34:01.366Z,9.20
2018-08-31T05:36:30.009Z,8.67
2018-08-31T05:38:58.497Z,8.80
2018-08-31T05:41:27.107Z,8.63
2018-08-31T05:43:55.781Z,7.90
2018-08-31T05:46:24.546Z,7.83
2018-08-31T05:48:53.010Z,8.60
2018-08-31T05:51:21.646Z,7.67
2018-08-31T05:53:50.240Z,7.90
2018-08-31T05:56:18.873Z,7.77
2018-08-31T05:58:47.589Z,7.57
2018-08-31T06:01:16.033Z,6.83
2018-08-31T06:03:44.533Z,6.77
2018-08-31T06:06:13.371Z,5.83
2018-08-31T06:08:42.035Z,6.37
2018-08-31T06:11:10.546Z,6.87
2018-08-31T06:13:39.393Z,7.07
2018-08-31T06:16:08.151Z,6.40
2018-08-31T06:18:37.107Z,5.73
2018-08-31T06:21:05.744Z,6.40
2018-08-31T06:23:34.189Z,5.65
2018-08-31T06:26:02.701Z,5.65
2018-08-31T06:28:31.248Z,5.87
2018-08-31T06:30:59.729Z,5.90
2018-08-31T06:33:28.192Z,5.20
2018-08-31T06:35:56.797Z,4.65
2018-08-31T06:38:25.485Z,4.42
2018-08-31T06:40:54.366Z,5.05
2018-08-31T06:43:22.773Z,4.70
2018-08-31T06:45:51.560Z,5.17
2018-08-31T06:48:20.326Z,4.57
2018-08-31T06:50:50.214Z,4.80
2018-08-31T06:53:19.126Z,4.47
2018-08-31T06:55:47.583Z,4.00
2018-08-31T06:58:16.193Z,4.40
2018-08-31T07:00:44.647Z,4.65
2018-08-31T07:03:13.201Z,4.87
2018-08-31T07:05:42.095Z,5.10
2018-08-31T07:08:10.522Z,4.65
2018-08-31T07:10:39.111Z,4.33
2018-08-31T07:13:07.846Z,4.37
2018-08-31T07:15:36.331Z,3.80
2018-08-31T07:18:04.868Z,4.58
2018-08-31T07:20:33.587Z,5.75
2018-08-31T07:23:02.402Z,5.28
2018-08-31T07:25:31.278Z,5.75
2018-08-31T07:28:00.288Z,5.97
2018-08-31T07:30:28.742Z,6.80
2018-08-31T07:32:57.193Z,7.53
2018-08-31T07:35:32.120Z,5.28
2018-08-31T07:38:00.700Z,6.50
2018-08-31T07:40:29.312Z,5.97
2018-08-31T07:42:57.908Z,6.33
2018-08-31T07:45:26.358Z,6.55
2018-08-31T07:47:54.865Z,6.17
2018-08-31T07:50:23.602Z,5.47
2018-08-31T07:52:52.061Z,5.10
2018-08-31T07:55:20.486Z,4.78
2018-08-31T07:57:49.090Z,5.83
2018-08-31T08:00:17.604Z,5.75
2018-08-31T08:02:46.051Z,6.03
2018-08-31T08:05:14.569Z,5.50
2018-08-31T08:07:43.023Z,5.58
2018-08-31T08:10:12.049Z,5.12
2018-08-31T08:12:40.547Z,5.15
2018-08-31T08:15:09.034Z,4.70
2018-08-31T08:17:37.485Z,5.00
2018-08-31T08:20:07.050Z,4.25
2018-08-31T08:22:35.994Z,4.55
2018-08-31T08:25:04.568Z,4.20
2018-08-31T08:27:33.320Z,3.70
2018-08-31T08:30:01.799Z,3.92
2018-08-31T08:32:30.257Z,3.80
2018-08-31T08:34:59.369Z,3.60
2018-08-31T08:37:28.038Z,3.33
2018-08-31T08:39:56.525Z,3.52
2018-08-31T08:42:25.749Z,3.40
2018-08-31T08:44:54.438Z,3.60
2018-08-31T08:47:22.941Z,3.33
2018-08-31T08:49:51.802Z,3.02
2018-08-31T08:52:21.217Z,2.83
2018-08-31T08:54:50.279Z,2.77
2018-08-31T08:57:19.439Z,2.87
2018-08-31T08:59:49.626Z,2.72
2018-08-31T09:02:18.090Z,2.80
2018-08-31T09:04:46.686Z,2.83
2018-08-31T09:07:17.073Z,2.70
2018-08-31T09:09:46.369Z,2.77
2018-08-31T09:12:15.245Z,2.30
2018-08-31T09:14:43.698Z,2.50
2018-08-31T09:17:12.132Z,2.75
2018-08-31T09:19:40.926Z,2.72
2018-08-31T09:22:09.389Z,2.45
2018-08-31T09:24:37.991Z,2.85
2018-08-31T09:27:07.104Z,2.60
2018-08-31T09:29:35.693Z,2.40
2018-08-31T09:32:09.544Z,2.15
2018-08-31T09:34:42.442Z,2.70
2018-08-31T09:37:10.952Z,2.40
2018-08-31T09:39:39.481Z,2.12
2018-08-31T09:42:08.642Z,2.22
2018-08-31T09:44:37.408Z,2.37
2018-08-31T09:47:06.704Z,2.20
2018-08-31T09:49:35.333Z,2.60
2018-08-31T09:52:03.807Z,2.42
2018-08-31T09:54:32.438Z,2.47
2018-08-31T09:57:00.961Z,2.62
2018-08-31T09:59:29.409Z,2.33
2018-08-31T10:02:04.169Z,2.42
2018-08-31T10:04:32.746Z,2.60
2018-08-31T10:07:01.216Z,2.27
2018-08-31T10:09:29.841Z,2.10
2018-08-31T10:11:58.269Z,2.30
2018-08-31T10:14:26.733Z,2.00
2018-08-31T10:16:55.489Z,2.55
2018-08-31T10:19:24.138Z,2.00
2018-08-31T10:21:52.582Z,2.27
2018-08-31T10:24:21.647Z,2.30
2018-08-31T10:26:50.358Z,1.98
2018-08-31T10:29:18.780Z,2.30
2018-08-31T10:31:47.587Z,2.05
2018-08-31T10:34:16.034Z,1.80
2018-08-31T10:36:44.493Z,1.90
2018-08-31T10:39:14.542Z,1.82
2018-08-31T10:41:43.026Z,2.25
2018-08-31T10:44:11.652Z,2.25
2018-08-31T10:46:40.751Z,2.10
2018-08-31T10:49:09.197Z,1.85
2018-08-31T10:51:38.025Z,2.25
2018-08-31T10:54:06.922Z,1.90
2018-08-31T10:56:35.700Z,2.40
2018-08-31T10:59:04.163Z,1.87
2018-08-31T11:01:32.721Z,2.00
2018-08-31T11:04:01.246Z,2.00
2018-08-31T11:06:29.694Z,2.00
2018-08-31T11:08:58.774Z,2.30
2018-08-31T11:11:27.239Z,2.37
2018-08-31T11:13:55.689Z,2.20
2018-08-31T11:16:24.231Z,2.42
2018-08-31T11:18:52.719Z,2.00
2018-08-31T11:21:21.165Z,2.05
2018-08-31T11:23:49.966Z,2.17
2018-08-31T11:26:19.457Z,2.22
2018-08-31T11:28:48.714Z,2.00
2018-08-31T11:31:17.237Z,1.87
2018-08-31T11:33:45.681Z,1.85
2018-08-31T11:36:14.110Z,2.10
2018-08-31T11:38:42.766Z,2.17
2018-08-31T11:41:11.201Z,1.77
2018-08-31T11:43:39.756Z,1.82
2018-08-31T11:46:09.458Z,1.95
2018-08-31T11:48:44.652Z,2.30
2018-08-31T11:51:13.590Z,1.77
2018-08-31T11:53:42.182Z,1.70
2018-08-31T11:56:10.729Z,2.20
2018-08-31T11:58:39.553Z,2.00
2018-08-31T12:01:08.205Z,2.35
2018-08-31T12:03:36.610Z,2.72
2018-08-31T12:06:05.254Z,2.10
2018-08-31T12:08:33.731Z,2.22
2018-08-31T12:11:02.219Z,2.42
2018-08-31T12:13:30.801Z,1.95
2018-08-31T12:15:59.264Z,2.20
2018-08-31T12:18:27.733Z,2.65
2018-08-31T12:20:56.844Z,2.10
2018-08-31T12:23:25.312Z,1.87
2018-08-31T12:25:53.804Z,2.00
2018-08-31T12:28:22.638Z,2.08
2018-08-31T12:30:51.201Z,2.00
2018-08-31T12:33:20.352Z,1.90
2018-08-31T12:35:49.236Z,1.50
2018-08-31T12:38:17.693Z,2.00
2018-08-31T12:40:46.377Z,2.37
2018-08-31T12:43:14.921Z,2.22
2018-08-31T12:45:43.411Z,2.17
2018-08-31T12:48:12.337Z,2.40
2018-08-31T12:50:41.640Z,2.10
2018-08-31T12:53:10.090Z,1.92
2018-08-31T12:55:38.519Z,1.90
2018-08-31T12:58:07.293Z,2.00
2018-08-31T13:00:35.719Z,2.05
2018-08-31T13:03:04.235Z,1.90
2018-08-31T13:05:33.061Z,1.95
2018-08-31T13:08:01.581Z,2.10
2018-08-31T13:10:30.078Z,1.90
2018-08-31T13:12:58.772Z,1.80
2018-08-31T13:15:27.210Z,1.70
2018-08-31T13:17:55.676Z,2.40
2018-08-31T13:20:24.478Z,1.65
2018-08-31T13:22:52.921Z,2.33
2018-08-31T13:25:21.418Z,1.85
2018-08-31T13:27:50.210Z,2.02
2018-08-31T13:30:18.690Z,1.92
2018-08-31T13:32:47.153Z,1.82
2018-08-31T13:35:16.446Z,1.75
2018-08-31T13:37:44.960Z,1.50
2018-08-31T13:40:13.434Z,2.15
2018-08-31T13:42:42.188Z,1.45
2018-08-31T13:45:10.709Z,2.12
2018-08-31T13:47:39.166Z,1.75
2018-08-31T13:50:07.910Z,1.40
2018-08-31T13:52:36.555Z,1.52
2018-08-31T13:55:05.074Z,1.70
2018-08-31T13:57:34.098Z,1.42
2018-08-31T14:00:02.537Z,1.72
2018-08-31T14:02:31.019Z,1.70
2018-08-31T14:04:59.745Z,1.50
2018-08-31T14:07:28.161Z,1.60
2018-08-31T14:09:57.107Z,1.65
2018-08-31T14:12:25.905Z,1.42
2018-08-31T14:14:54.337Z,1.65
2018-08-31T14:17:22.857Z,2.00
2018-08-31T14:19:51.430Z,1.60
2018-08-31T14:22:19.879Z,1.62
2018-08-31T14:24:48.673Z,1.85
2018-08-31T14:27:17.610Z,1.72
2018-08-31T14:29:46.166Z,1.67
2018-08-31T14:32:14.541Z,1.90
2018-08-31T14:34:43.353Z,1.82
2018-08-31T14:37:11.805Z,1.70
2018-08-31T14:39:40.264Z,1.75
2018-08-31T14:42:09.018Z,2.05
2018-08-31T14:44:37.457Z,1.82
2018-08-31T14:47:06.013Z,2.05
2018-08-31T14:49:35.730Z,2.45
2018-08-31T14:52:04.146Z,2.00
2018-08-31T14:54:32.760Z,1.90
2018-08-31T14:57:01.715Z,1.95
2018-08-31T14:59:30.208Z,2.05
2018-08-31T15:01:58.709Z,2.20
2018-08-31T15:04:28.013Z,1.92
2018-08-31T15:06:56.524Z,1.95
2018-08-31T15:09:25.029Z,2.02
2018-08-31T15:11:54.181Z,2.02
2018-08-31T15:14:22.605Z,2.20
2018-08-31T15:16:51.034Z,2.02
2018-08-31T15:19:20.326Z,1.80
2018-08-31T15:21:48.778Z,2.22
2018-08-31T15:24:17.210Z,1.90
2018-08-31T15:26:46.076Z,1.92
2018-08-31T15:29:14.504Z,2.12
2018-08-31T15:31:42.954Z,2.30
2018-08-31T15:34:11.915Z,2.22
2018-08-31T15:36:40.359Z,2.27
2018-08-31T15:39:09.783Z,2.40
2018-08-31T15:41:38.340Z,2.58
2018-08-31T15:44:06.877Z,2.70
2018-08-31T15:46:35.317Z,2.90
2018-08-31T15:49:03.868Z,2.67
2018-08-31T15:51:32.347Z,2.60
2018-08-31T15:54:00.779Z,2.42
2018-08-31T15:56:29.588Z,2.50
2018-08-31T15:58:58.035Z,2.58
2018-08-31T16:01:26.515Z,3.17
2018-08-31T16:03:55.612Z,3.37
2018-08-31T16:06:24.081Z,3.00
2018-08-31T16:08:52.545Z,3.92
2018-08-31T16:11:21.201Z,4.20
2018-08-31T16:13:49.878Z,3.55
2018-08-31T16:16:18.525Z,4.00
2018-08-31T16:18:47.217Z,4.15
2018-08-31T16:21:15.705Z,3.65
2018-08-31T16:23:44.153Z,4.17
2018-08-31T16:26:12.965Z,3.80
2018-08-31T16:28:41.419Z,4.08
2018-08-31T16:31:09.881Z,3.42
2018-08-31T16:33:38.398Z,3.55
2018-08-31T16:36:06.854Z,3.42
2018-08-31T16:38:35.285Z,3.95
2018-08-31T16:41:03.833Z,3.58
2018-08-31T16:43:32.283Z,3.25
2018-08-31T16:46:00.716Z,3.05
2018-08-31T16:48:29.269Z,3.15
2018-08-31T16:50:57.701Z,3.33
2018-08-31T16:53:26.131Z,3.20
2018-08-31T16:55:54.869Z,3.12
2018-08-31T16:58:23.630Z,6.28
2018-08-31T17:00:52.109Z,4.58
2018-08-31T17:03:20.671Z,3.10
2018-08-31T17:05:49.197Z,3.30
2018-08-31T17:08:17.630Z,3.40
2018-08-31T17:10:46.192Z,3.67
2018-08-31T17:13:14.630Z,3.20
2018-08-31T17:15:43.227Z,3.37
2018-08-31T17:18:12.053Z,3.52
2018-08-31T17:20:40.534Z,3.33
2018-08-31T17:23:09.038Z,3.47
2018-08-31T17:25:37.709Z,3.85
2018-08-31T17:28:11.376Z,3.90
2018-08-31T17:30:39.973Z,4.55
2018-08-31T17:33:13.681Z,4.70
2018-08-31T17:35:47.645Z,4.37
2018-08-31T17:38:16.221Z,5.30
2018-08-31T17:40:44.665Z,5.55
2018-08-31T17:43:13.160Z,5.23
2018-08-31T17:45:41.755Z,5.53
2018-08-31T17:48:10.269Z,6.30
2018-08-31T17:50:38.757Z,6.73
2018-08-31T17:53:07.797Z,6.27
2018-08-31T17:55:36.276Z,6.05
2018-08-31T17:58:04.917Z,6.58
2018-08-31T18:00:33.778Z,6.93
2018-08-31T18:03:02.232Z,7.15
2018-08-31T18:05:30.742Z,7.20
2018-08-31T18:07:59.289Z,8.03
2018-08-31T18:10:27.734Z,6.60
2018-08-31T18:12:56.214Z,7.22
2018-08-31T18:15:24.966Z,7.53
2018-08-31T18:17:53.473Z,8.33
2018-08-31T18:20:21.959Z,7.92
2018-08-31T18:22:51.601Z,9.63
2018-08-31T18:25:20.898Z,9.20
2018-08-31T18:27:49.509Z,14.90
2018-08-31T18:30:18.117Z,8.80
2018-08-31T18:32:46.598Z,8.65
2018-08-31T18:35:15.360Z,9.70
2018-08-31T18:37:43.893Z,8.73
2018-08-31T18:40:12.365Z,10.07
2018-08-31T18:42:40.845Z,9.60
2018-08-31T18:45:09.358Z,8.93
2018-08-31T18:47:37.826Z,10.37
2018-08-31T18:50:06.374Z,9.20
2018-08-31T18:52:35.098Z,9.33
2018-08-31T18:55:03.506Z,13.80
2018-08-31T18:57:32.157Z,10.73
2018-08-31T19:00:00.724Z,9.77
2018-08-31T19:02:29.337Z,10.13
2018-08-31T19:04:57.802Z,8.50
2018-08-31T19:07:26.726Z,10.33
2018-08-31T19:09:55.185Z,8.80
2018-08-31T19:12:23.688Z,8.33
2018-08-31T19:14:52.430Z,11.40
2018-08-31T19:17:20.944Z,8.37
2018-08-31T19:19:49.811Z,8.43
2018-08-31T19:22:18.905Z,7.93
2018-08-31T19:24:47.384Z,7.20
2018-08-31T19:27:16.645Z,7.70
2018-08-31T19:29:45.613Z,8.30
2018-08-31T19:32:14.067Z,7.93
2018-08-31T19:34:42.685Z,9.27
2018-08-31T19:37:11.402Z,8.37
2018-08-31T19:39:39.873Z,8.97
2018-08-31T19:42:08.523Z,9.40
2018-08-31T19:44:37.165Z,10.40
2018-08-31T19:47:05.663Z,9.20
2018-08-31T19:49:34.313Z,9.73
2018-08-31T19:52:09.599Z,9.93
2018-08-31T19:54:38.131Z,9.73
2018-08-31T19:57:06.684Z,10.00
2018-08-31T19:59:35.326Z,10.67
2018-08-31T20:02:03.829Z,9.97
2018-08-31T20:04:32.540Z,10.23
2018-08-31T20:07:01.582Z,9.47
2018-08-31T20:09:30.070Z,9.90
2018-08-31T20:11:58.509Z,11.47
2018-08-31T20:14:27.411Z,10.87
2018-08-31T20:16:56.054Z,9.93
2018-08-31T20:19:24.632Z,8.97
2018-08-31T20:21:53.202Z,10.80
2018-08-31T20:24:21.721Z,11.63
2018-08-31T20:26:50.237Z,12.23
2018-08-31T20:29:18.797Z,10.23
2018-08-31T20:31:47.362Z,10.93
2018-08-31T20:34:15.830Z,11.70
2018-08-31T20:36:44.437Z,12.50
2018-08-31T20:39:13.444Z,10.47
2018-08-31T20:41:42.177Z,10.37
2018-08-31T20:44:10.832Z,9.93
2018-08-31T20:46:39.368Z,11.20
2018-08-31T20:49:07.814Z,11.93
2018-08-31T20:51:37.090Z,11.00
2018-08-31T20:54:05.663Z,10.97
2018-08-31T20:56:34.120Z,11.40
2018-08-31T20:59:02.570Z,11.07
2018-08-31T21:01:31.039Z,11.30
2018-08-31T21:03:59.521Z,11.47
2018-08-31T21:06:28.446Z,13.00
2018-08-31T21:08:57.477Z,13.10
2018-08-31T21:11:25.957Z,14.87
2018-08-31T21:13:54.473Z,13.00
2018-08-31T21:16:22.921Z,13.97
2018-08-31T21:18:51.381Z,12.13
2018-08-31T21:21:19.930Z,12.50
2018-08-31T21:23:48.622Z,13.87
2018-08-31T21:26:17.088Z,13.57
2018-08-31T21:28:45.864Z,11.90
2018-08-31T21:31:14.436Z,11.97
2018-08-31T21:33:42.877Z,12.10
2018-08-31T21:36:11.417Z,11.60
2018-08-31T21:38:39.917Z,12.23
2018-08-31T21:41:08.381Z,10.13
2018-08-31T21:43:36.946Z,11.23
2018-08-31T21:46:05.627Z,11.03
2018-08-31T21:48:34.093Z,10.87
2018-08-31T21:51:02.713Z,11.03
2018-08-31T21:53:31.365Z,10.00
2018-08-31T21:55:59.851Z,9.63
2018-08-31T21:58:28.381Z,9.67
2018-08-31T22:01:02.347Z,10.30
2018-08-31T22:03:30.864Z,9.90
2018-08-31T22:05:59.321Z,9.20
2018-08-31T22:08:28.149Z,8.70
2018-08-31T22:10:57.069Z,10.70
2018-08-31T22:13:25.504Z,9.03
2018-08-31T22:15:53.962Z,8.37
2018-08-31T22:18:22.484Z,8.57
2018-08-31T22:20:50.921Z,8.17
2018-08-31T22:23:20.481Z,7.87
2018-08-31T22:25:49.699Z,7.90
2018-08-31T22:28:18.199Z,7.90
2018-08-31T22:30:46.703Z,7.70
2018-08-31T22:33:21.857Z,7.50
2018-08-31T22:35:50.408Z,7.40
2018-08-31T22:38:19.116Z,7.43
2018-08-31T22:40:47.607Z,7.47
2018-08-31T22:43:16.146Z,6.93
2018-08-31T22:45:44.579Z,7.93
2018-08-31T22:48:13.099Z,7.33
2018-08-31T22:50:41.719Z,7.67
2018-08-31T22:53:10.149Z,7.70
2018-08-31T22:55:38.697Z,7.77
2018-08-31T22:58:07.205Z,8.25
2018-08-31T23:00:35.701Z,8.03
2018-08-31T23:03:04.720Z,8.27
2018-08-31T23:05:33.279Z,7.90
2018-08-31T23:08:01.745Z,7.37
2018-08-31T23:10:30.629Z,7.37
2018-08-31T23:12:59.324Z,7.40
2018-08-31T23:15:27.809Z,6.70
2018-08-31T23:17:56.256Z,6.43
2018-08-31T23:20:24.746Z,6.23
2018-08-31T23:22:57.329Z,6.60
2018-08-31T23:25:31.407Z,6.47
2018-08-31T23:28:00.081Z,6.00
2018-08-31T23:30:28.515Z,5.60
2018-08-31T23:32:57.157Z,6.23
2018-08-31T23:35:32.386Z,5.70
2018-08-31T23:38:00.837Z,5.73
2018-08-31T23:40:30.018Z,6.23
2018-08-31T23:42:58.525Z,5.80
2018-08-31T23:45:27.153Z,5.10
2018-08-31T23:47:55.610Z,4.97
2018-08-31T23:50:24.490Z,5.00
2018-08-31T23:52:53.253Z,5.47
2018-08-31T23:55:21.720Z,5.03
2018-08-31T23:57:50.560Z,5.03
